createdAt,value
2024-02-24T00:02:11.340Z,92.92
2024-02-24T00:05:42.256Z,93.17
2024-02-24T00:09:30.671Z,93.22
2024-02-24T00:13:20.981Z,93.17
2024-02-24T00:33:18.614Z,93.44
2024-02-24T00:37:06.535Z,93.50
2024-02-24T00:41:09.418Z,93.63
2024-02-24T00:45:03.228Z,93.51
2024-02-24T00:48:58.123Z,93.44
2024-02-24T00:52:37.740Z,93.60
2024-02-24T00:56:30.644Z,93.60
2024-02-24T01:00:19.617Z,93.54
2024-02-24T01:04:07.597Z,93.65
2024-02-24T01:07:59.728Z,93.73
2024-02-24T01:16:12.368Z,93.58
2024-02-24T01:19:51.189Z,93.64
2024-02-24T01:23:44.296Z,93.60
2024-02-24T01:27:33.042Z,93.68
2024-02-24T01:31:20.968Z,93.58
2024-02-24T01:35:27.110Z,93.41
2024-02-24T01:39:28.379Z,93.64
2024-02-24T01:47:35.110Z,93.46
2024-02-24T01:51:30.200Z,93.55
2024-02-24T01:55:18.932Z,93.73
2024-02-24T01:59:08.750Z,93.83
2024-02-24T02:02:59.724Z,93.78
2024-02-24T02:06:46.786Z,93.73
2024-02-24T02:14:53.583Z,93.56
2024-02-24T02:18:55.715Z,93.46
2024-02-24T02:22:45.794Z,93.52
2024-02-24T02:26:34.670Z,93.53
2024-02-24T02:30:13.111Z,93.64
2024-02-24T02:34:01.813Z,93.57
2024-02-24T02:37:54.400Z,93.72
2024-02-24T02:41:47.980Z,93.65
2024-02-24T02:45:44.432Z,93.56
2024-02-24T02:49:15.409Z,93.67
2024-02-24T02:53:05.881Z,93.53
2024-02-24T02:56:53.865Z,93.74
2024-02-24T03:00:41.093Z,93.70
2024-02-24T03:04:38.664Z,93.64
2024-02-24T03:08:26.706Z,93.73
2024-02-24T03:12:17.509Z,93.70
2024-02-24T03:20:42.348Z,93.83
2024-02-24T03:24:36.213Z,93.80
2024-02-24T03:28:24.948Z,93.85
2024-02-24T03:32:25.177Z,93.93
2024-02-24T03:36:22.081Z,94.01
2024-02-24T03:40:12.960Z,94.09
2024-02-24T03:44:15.954Z,94.20
2024-02-24T03:48:06.117Z,94.34
2024-02-24T03:52:06.706Z,94.24
2024-02-24T03:56:08.638Z,94.34
2024-02-24T03:59:56.623Z,94.62
2024-02-24T04:04:00.121Z,94.49
2024-02-24T04:07:48.050Z,94.70
2024-02-24T04:11:30.007Z,94.75
2024-02-24T04:15:34.937Z,94.74
2024-02-24T04:19:35.161Z,94.82
2024-02-24T04:23:23.132Z,94.90
2024-02-24T04:27:25.156Z,95.06
2024-02-24T04:31:13.074Z,95.07
2024-02-24T04:35:13.187Z,95.00
2024-02-24T04:43:24.885Z,95.14
2024-02-24T04:56:22.373Z,95.28
2024-02-24T05:00:10.224Z,95.35
2024-02-24T05:03:58.284Z,95.35
2024-02-24T05:12:06.767Z,95.46
2024-02-24T05:16:01.294Z,95.38
2024-02-24T05:19:52.188Z,95.33
2024-02-24T05:23:54.722Z,95.37
2024-02-24T05:27:46.076Z,95.36
2024-02-24T05:31:30.500Z,95.27
2024-02-24T05:35:30.387Z,95.44
2024-02-24T05:39:11.008Z,95.21
2024-02-24T05:43:08.764Z,95.34
2024-02-24T05:47:12.736Z,95.38
2024-02-24T05:51:15.396Z,95.38
2024-02-24T05:55:03.591Z,95.55
2024-02-24T05:58:51.354Z,95.39
2024-02-24T06:02:42.546Z,95.48
2024-02-24T06:06:36.380Z,95.33
2024-02-24T06:10:25.974Z,95.47
2024-02-24T06:14:23.885Z,95.36
2024-02-24T06:22:25.145Z,95.38
2024-02-24T06:26:13.180Z,95.39
2024-02-24T06:30:01.203Z,95.43
2024-02-24T06:38:05.527Z,95.31
2024-02-24T06:41:46.283Z,95.22
2024-02-24T06:45:36.161Z,95.26
2024-02-24T06:49:26.264Z,95.23
2024-02-24T06:53:20.468Z,95.14
2024-02-24T06:57:13.430Z,95.09
2024-02-24T07:01:00.520Z,95.04
2024-02-24T07:04:48.543Z,94.88
2024-02-24T07:08:47.648Z,94.90
2024-02-24T07:12:43.994Z,94.66
2024-02-24T07:16:32.389Z,94.80
2024-02-24T07:20:20.412Z,94.76
2024-02-24T07:24:15.962Z,94.67
2024-02-24T07:32:28.243Z,94.47
2024-02-24T07:36:17.994Z,94.34
2024-02-24T07:40:08.364Z,94.15
2024-02-24T07:44:02.390Z,94.01
2024-02-24T07:55:28.380Z,93.71
2024-02-24T08:03:37.021Z,93.57
2024-02-24T08:07:24.968Z,93.53
2024-02-24T08:11:06.706Z,93.48
2024-02-24T08:19:12.331Z,93.02
2024-02-24T08:22:58.733Z,92.70
2024-02-24T08:30:18.746Z,92.37
2024-02-24T08:38:18.041Z,91.99
2024-02-24T08:42:06.615Z,91.76
2024-02-24T08:45:59.238Z,91.76
2024-02-24T08:49:52.367Z,91.47
2024-02-24T08:53:41.620Z,91.49
2024-02-24T08:57:29.528Z,91.04
2024-02-24T09:00:59.713Z,90.70
2024-02-24T09:04:39.459Z,90.63
2024-02-24T09:08:20.451Z,90.55
2024-02-24T09:12:13.004Z,90.52
2024-02-24T09:15:59.922Z,90.39
2024-02-24T09:19:51.790Z,90.22
2024-02-24T09:23:25.112Z,89.97
2024-02-24T09:27:13.756Z,89.67
2024-02-24T09:31:07.521Z,89.28
2024-02-24T09:38:51.402Z,88.37
2024-02-24T09:42:56.033Z,87.97
2024-02-24T09:46:45.428Z,86.99
2024-02-24T09:50:34.142Z,86.71
2024-02-24T09:58:39.237Z,86.24
2024-02-24T10:11:10.635Z,85.71
2024-02-24T10:19:18.316Z,85.09
2024-02-24T10:23:09.529Z,84.83
2024-02-24T10:26:56.291Z,84.33
2024-02-24T10:30:44.255Z,84.26
2024-02-24T10:34:26.190Z,83.52
2024-02-24T10:38:23.963Z,82.98
2024-02-24T10:46:40.217Z,81.87
2024-02-24T10:50:30.289Z,81.27
2024-02-24T10:54:22.908Z,80.39
2024-02-24T10:58:10.767Z,80.06
2024-02-24T11:01:52.371Z,79.65
2024-02-24T11:09:49.747Z,78.96
2024-02-24T11:13:37.654Z,78.93
2024-02-24T11:17:18.574Z,79.11
2024-02-24T11:21:20.649Z,79.01
2024-02-24T11:25:23.858Z,78.98
2024-02-24T11:29:23.771Z,78.78
2024-02-24T11:33:09.308Z,78.84
2024-02-24T11:37:05.057Z,78.94
2024-02-24T11:40:56.344Z,79.09
2024-02-24T11:44:48.628Z,79.21
2024-02-24T11:48:45.933Z,79.31
2024-02-24T11:52:35.024Z,79.40
2024-02-24T12:00:37.723Z,79.70
2024-02-24T12:04:36.133Z,79.82
2024-02-24T12:08:33.452Z,79.85
2024-02-24T12:12:36.297Z,79.91
2024-02-24T12:16:28.053Z,79.90
2024-02-24T12:24:22.417Z,80.11
2024-02-24T12:27:50.296Z,80.18
2024-02-24T12:31:49.026Z,80.29
2024-02-24T12:40:06.602Z,80.34
2024-02-24T12:43:58.505Z,80.45
2024-02-24T12:47:59.019Z,80.47
2024-02-24T12:56:15.903Z,80.29
2024-02-24T13:00:18.942Z,80.27
2024-02-24T13:04:11.005Z,80.30
2024-02-24T13:08:02.468Z,80.45
2024-02-24T13:11:55.560Z,80.56
2024-02-24T13:15:46.486Z,80.65
2024-02-24T13:23:58.959Z,81.14
2024-02-24T13:27:49.052Z,81.27
2024-02-24T13:31:39.276Z,81.10
2024-02-24T13:39:41.131Z,81.37
2024-02-24T13:43:31.742Z,81.54
2024-02-24T13:47:22.886Z,81.75
2024-02-24T13:51:18.645Z,81.73
2024-02-24T13:55:07.970Z,81.63
2024-02-24T13:58:55.402Z,81.89
2024-02-24T14:02:57.068Z,82.01
2024-02-24T14:06:51.990Z,82.17
2024-02-24T14:10:48.002Z,82.27
2024-02-24T14:14:32.856Z,82.34
2024-02-24T14:18:20.940Z,82.40
2024-02-24T14:22:08.897Z,82.43
2024-02-24T14:25:57.525Z,82.39
2024-02-24T14:29:45.464Z,82.31
2024-02-24T14:33:45.757Z,82.22
2024-02-24T14:37:34.569Z,82.27
2024-02-24T14:41:22.488Z,82.07
2024-02-24T14:45:05.142Z,81.93
2024-02-24T14:49:08.002Z,81.94
2024-02-24T14:52:54.867Z,81.72
2024-02-24T14:56:33.958Z,81.60
2024-02-24T15:04:17.967Z,81.38
2024-02-24T15:09:30.220Z,81.22
2024-02-24T15:12:34.115Z,81.20
2024-02-24T15:16:21.978Z,81.04
2024-02-24T15:20:09.842Z,81.09
2024-02-24T15:25:04.584Z,80.83
2024-02-24T15:31:59.169Z,80.64
2024-02-24T15:35:23.298Z,80.57
2024-02-24T15:39:09.970Z,79.91
2024-02-24T15:42:56.332Z,79.18
2024-02-24T15:46:44.788Z,78.82
2024-02-24T15:50:35.383Z,78.40
2024-02-24T15:55:40.061Z,78.15
2024-02-24T15:58:56.151Z,77.90
2024-02-24T16:02:45.635Z,77.67
2024-02-24T16:06:33.750Z,77.70
2024-02-24T16:10:22.076Z,77.63
2024-02-24T16:14:39.020Z,77.46
2024-02-24T16:22:45.657Z,77.72
2024-02-24T16:26:45.573Z,77.69
2024-02-24T16:30:24.119Z,77.62
2024-02-24T16:34:16.104Z,77.66
2024-02-24T16:38:04.718Z,77.68
2024-02-24T16:42:08.803Z,77.76
2024-02-24T16:45:56.775Z,77.84
2024-02-24T16:53:56.254Z,77.81
2024-02-24T16:57:48.005Z,77.72
2024-02-24T17:01:39.996Z,77.88
2024-02-24T17:07:33.450Z,77.72
2024-02-24T17:09:50.897Z,77.79
2024-02-24T17:13:40.743Z,77.79
2024-02-24T17:17:21.345Z,77.87
2024-02-24T17:21:22.443Z,78.03
2024-02-24T17:25:12.527Z,78.31
2024-02-24T17:33:26.652Z,78.41
2024-02-24T17:36:43.160Z,78.54
2024-02-24T17:40:12.088Z,78.92
2024-02-24T17:44:11.137Z,79.21
2024-02-24T17:47:41.280Z,79.14
2024-02-24T17:51:15.517Z,79.21
2024-02-24T17:54:25.560Z,79.14
2024-02-24T18:06:24.501Z,79.40
2024-02-24T18:10:13.741Z,79.19
2024-02-24T18:13:46.680Z,79.60
2024-02-24T18:17:36.348Z,79.68
2024-02-24T18:21:20.280Z,79.46
2024-02-24T18:25:03.046Z,79.58
2024-02-24T18:28:34.730Z,79.82
2024-02-24T18:32:09.337Z,79.50
2024-02-24T18:35:52.366Z,79.61
2024-02-24T18:39:40.268Z,79.59
2024-02-24T18:43:32.668Z,79.63
2024-02-24T18:47:25.427Z,79.68
2024-02-24T18:51:06.307Z,79.79
2024-02-24T18:54:58.712Z,79.63
2024-02-24T18:58:46.694Z,79.73
2024-02-24T19:02:30.689Z,79.54
2024-02-24T19:06:19.219Z,79.49
2024-02-24T19:10:01.609Z,79.54
2024-02-24T19:21:48.741Z,79.75
2024-02-24T19:25:38.391Z,80.08
2024-02-24T19:29:17.666Z,80.07
2024-02-24T19:33:04.543Z,79.88
2024-02-24T19:36:57.934Z,80.11
2024-02-24T19:40:49.901Z,80.18
2024-02-24T19:44:42.791Z,80.14
2024-02-24T19:48:31.445Z,80.18
2024-02-24T19:52:24.423Z,80.37
2024-02-24T19:56:12.380Z,80.44
2024-02-24T19:59:44.591Z,80.43
2024-02-24T20:03:33.411Z,80.50
2024-02-24T20:07:05.689Z,80.73
2024-02-24T20:10:47.707Z,80.72
2024-02-24T20:21:29.292Z,81.20
2024-02-24T20:24:57.871Z,81.17
2024-02-24T20:28:17.960Z,81.10
2024-02-24T20:32:35.858Z,81.22
2024-02-24T20:35:23.199Z,80.97
2024-02-24T20:38:35.905Z,81.04
2024-02-24T20:42:05.664Z,80.96
2024-02-24T20:45:50.957Z,81.27
2024-02-24T20:49:09.680Z,81.08
2024-02-24T20:52:19.780Z,81.13
2024-02-24T20:55:47.630Z,81.12
2024-02-24T20:59:15.895Z,81.27
2024-02-24T21:02:43.619Z,81.27
2024-02-24T21:06:09.865Z,81.25
2024-02-24T21:09:08.207Z,81.42
2024-02-24T21:12:35.885Z,81.48
2024-02-24T21:16:14.793Z,81.47
2024-02-24T21:19:41.372Z,81.60
2024-02-24T21:23:12.135Z,81.64
2024-02-24T21:26:40.005Z,81.69
2024-02-24T21:30:05.621Z,81.76
2024-02-24T21:33:35.770Z,81.83
2024-02-24T21:36:46.872Z,81.98
2024-02-24T21:40:00.161Z,81.92
2024-02-24T21:43:19.426Z,81.92
2024-02-24T21:46:32.370Z,82.10
2024-02-24T21:49:53.554Z,82.03
2024-02-24T21:53:04.775Z,82.24
2024-02-24T21:59:57.817Z,82.41
2024-02-24T22:03:25.505Z,82.55
2024-02-24T22:07:16.034Z,82.58
2024-02-24T22:10:31.214Z,82.47
2024-02-24T22:14:12.792Z,82.59
2024-02-24T22:17:52.315Z,82.68
2024-02-24T22:25:49.710Z,82.79
2024-02-24T22:29:24.223Z,82.93
2024-02-24T22:33:14.435Z,82.86
2024-02-24T22:37:15.222Z,82.94
2024-02-24T22:45:04.515Z,82.82
2024-02-24T22:48:40.992Z,82.90
2024-02-24T22:52:04.140Z,82.98
2024-02-24T22:55:52.032Z,83.06
2024-02-24T22:59:05.765Z,83.20
2024-02-24T23:02:39.538Z,83.10
2024-02-24T23:06:32.240Z,83.26
2024-02-24T23:10:03.822Z,83.38
2024-02-24T23:17:50.485Z,83.45
2024-02-24T23:21:11.306Z,83.64
2024-02-24T23:29:02.712Z,83.63
2024-02-24T23:32:49.644Z,83.67
2024-02-24T23:36:24.653Z,83.83
2024-02-24T23:40:15.000Z,83.73
2024-02-24T23:44:18.213Z,84.18
2024-02-24T23:48:15.758Z,84.19
2024-02-24T23:56:22.443Z,84.33
